createdAt,value
2022-08-27T00:00:29.450Z,2.67
2022-08-27T00:04:11.320Z,3.83
2022-08-27T00:07:53.873Z,2.35
2022-08-27T00:11:35.705Z,3.13
2022-08-27T00:15:17.885Z,2.60
2022-08-27T00:18:59.897Z,2.85
2022-08-27T00:22:41.741Z,2.70
2022-08-27T00:26:23.703Z,3.40
2022-08-27T00:30:07.298Z,2.92
2022-08-27T00:33:49.086Z,2.97
2022-08-27T00:37:31.199Z,2.90
2022-08-27T00:41:13.648Z,3.10
2022-08-27T00:45:00.353Z,3.80
2022-08-27T00:48:42.149Z,3.20
2022-08-27T00:52:28.218Z,3.03
2022-08-27T00:56:23.210Z,3.30
2022-08-27T01:00:10.994Z,3.50
2022-08-27T01:03:55.006Z,3.17
2022-08-27T01:07:38.969Z,3.47
2022-08-27T01:11:20.813Z,3.35
2022-08-27T01:15:10.035Z,3.67
2022-08-27T01:18:54.050Z,4.43
2022-08-27T01:23:19.618Z,3.53
2022-08-27T01:27:02.172Z,3.70
2022-08-27T01:30:43.994Z,3.25
2022-08-27T01:34:25.989Z,3.35
2022-08-27T01:38:09.351Z,3.90
2022-08-27T01:42:17.911Z,4.10
2022-08-27T01:45:59.737Z,3.47
2022-08-27T01:49:41.546Z,3.88
2022-08-27T01:53:24.601Z,3.65
2022-08-27T01:57:06.599Z,3.13
2022-08-27T02:00:51.927Z,3.72
2022-08-27T02:04:38.399Z,3.15
2022-08-27T02:08:20.261Z,3.00
2022-08-27T02:12:02.259Z,3.08
2022-08-27T02:15:44.063Z,3.85
2022-08-27T02:19:26.887Z,3.05
2022-08-27T02:23:09.004Z,3.90
2022-08-27T02:26:50.741Z,3.50
2022-08-27T02:30:32.813Z,2.88
2022-08-27T02:34:14.849Z,3.38
2022-08-27T02:37:57.014Z,2.80
2022-08-27T02:41:38.825Z,3.08
2022-08-27T02:45:20.827Z,2.90
2022-08-27T02:49:02.621Z,2.55
2022-08-27T02:52:46.361Z,2.55
2022-08-27T02:56:28.389Z,2.83
2022-08-27T03:00:12.148Z,3.15
2022-08-27T03:03:53.905Z,2.95
2022-08-27T03:07:35.712Z,2.95
2022-08-27T03:11:17.509Z,2.78
2022-08-27T03:14:59.465Z,2.90
2022-08-27T03:18:41.256Z,2.08
2022-08-27T03:22:23.044Z,3.28
2022-08-27T03:26:05.577Z,4.00
2022-08-27T03:29:48.470Z,2.67
2022-08-27T03:33:32.839Z,2.95
2022-08-27T03:37:14.615Z,2.75
2022-08-27T03:40:56.385Z,2.92
2022-08-27T03:44:38.179Z,2.80
2022-08-27T03:48:20.077Z,2.83
2022-08-27T03:52:02.032Z,2.35
2022-08-27T03:55:43.916Z,2.75
2022-08-27T03:59:25.662Z,3.13
2022-08-27T04:03:07.684Z,2.03
2022-08-27T04:06:49.746Z,2.75
2022-08-27T04:10:32.806Z,3.00
2022-08-27T04:14:26.515Z,2.75
2022-08-27T04:18:09.384Z,2.78
2022-08-27T04:21:51.291Z,2.90
2022-08-27T04:25:33.164Z,3.03
2022-08-27T04:29:15.001Z,3.28
2022-08-27T04:32:58.210Z,2.80
2022-08-27T04:36:39.992Z,3.38
2022-08-27T04:40:21.836Z,3.88
2022-08-27T04:44:05.839Z,3.00
2022-08-27T04:47:47.565Z,3.13
2022-08-27T04:51:29.768Z,2.40
2022-08-27T04:55:12.044Z,3.58
2022-08-27T04:58:53.813Z,3.53
2022-08-27T05:02:35.621Z,2.63
2022-08-27T05:06:17.765Z,3.33
2022-08-27T05:09:59.526Z,2.80
2022-08-27T05:13:42.472Z,3.33
2022-08-27T05:17:24.731Z,3.08
2022-08-27T05:21:06.845Z,3.85
2022-08-27T05:24:53.743Z,4.00
2022-08-27T05:28:35.589Z,3.25
2022-08-27T05:32:17.433Z,3.90
2022-08-27T05:35:59.390Z,3.50
2022-08-27T05:39:41.287Z,3.25
2022-08-27T05:43:23.087Z,3.28
2022-08-27T05:47:04.935Z,3.80
2022-08-27T05:50:46.732Z,3.60
2022-08-27T05:54:28.541Z,2.88
2022-08-27T05:58:30.933Z,3.25
2022-08-27T06:02:12.785Z,3.40
2022-08-27T06:06:02.656Z,3.15
2022-08-27T06:09:44.477Z,3.40
2022-08-27T06:13:26.255Z,3.45
2022-08-27T06:17:08.119Z,3.58
2022-08-27T06:20:49.931Z,3.17
2022-08-27T06:24:31.730Z,3.40
2022-08-27T06:28:13.608Z,3.47
2022-08-27T06:31:56.345Z,3.65
2022-08-27T06:35:38.163Z,4.03
2022-08-27T06:39:19.943Z,3.67
2022-08-27T06:43:03.170Z,3.92
2022-08-27T06:46:45.311Z,4.30
2022-08-27T06:50:27.545Z,3.95
2022-08-27T06:54:10.383Z,3.22
2022-08-27T06:57:52.245Z,4.55
2022-08-27T07:01:36.624Z,3.92
2022-08-27T07:05:19.094Z,4.35
2022-08-27T07:09:01.138Z,4.65
2022-08-27T07:12:43.469Z,4.38
2022-08-27T07:16:27.004Z,4.30
2022-08-27T07:20:09.555Z,5.47
2022-08-27T07:23:52.806Z,5.93
2022-08-27T07:27:34.823Z,5.10
2022-08-27T07:31:18.290Z,5.00
2022-08-27T07:35:00.487Z,5.07
2022-08-27T07:38:42.862Z,4.88
2022-08-27T07:42:44.268Z,4.13
2022-08-27T07:46:26.407Z,4.72
2022-08-27T07:50:08.451Z,4.43
2022-08-27T07:53:50.228Z,3.58
2022-08-27T07:57:32.469Z,4.70
2022-08-27T08:01:14.441Z,3.88
2022-08-27T08:04:56.627Z,3.45
2022-08-27T08:08:40.906Z,3.42
2022-08-27T08:12:26.732Z,3.88
2022-08-27T08:16:08.580Z,3.63
2022-08-27T08:20:08.788Z,3.17
2022-08-27T08:23:53.398Z,2.92
2022-08-27T08:27:35.943Z,2.95
2022-08-27T08:31:17.805Z,2.55
2022-08-27T08:35:00.180Z,2.50
2022-08-27T08:38:42.127Z,3.33
2022-08-27T08:42:35.885Z,3.63
2022-08-27T08:46:25.060Z,2.60
2022-08-27T08:50:28.596Z,2.17
2022-08-27T08:54:21.110Z,2.60
2022-08-27T08:58:18.066Z,2.30
2022-08-27T09:02:00.024Z,15.73
2022-08-27T09:05:45.865Z,2.25
2022-08-27T09:09:33.587Z,1.77
2022-08-27T09:13:31.282Z,2.47
2022-08-27T09:17:13.112Z,1.75
2022-08-27T09:21:08.840Z,1.38
2022-08-27T09:24:55.987Z,1.38
2022-08-27T09:28:58.464Z,1.70
2022-08-27T09:32:40.601Z,1.48
2022-08-27T09:36:23.866Z,1.42
2022-08-27T09:40:22.970Z,0.90
2022-08-27T09:44:10.478Z,1.55
2022-08-27T09:48:07.498Z,1.30
2022-08-27T09:51:49.425Z,1.88
2022-08-27T09:55:46.765Z,1.50
2022-08-27T09:59:34.113Z,1.20
2022-08-27T10:03:23.652Z,1.42
2022-08-27T10:07:42.154Z,0.80
2022-08-27T10:11:29.578Z,1.38
2022-08-27T10:15:11.454Z,1.48
2022-08-27T10:19:14.681Z,4.63
2022-08-27T10:23:14.899Z,1.35
2022-08-27T10:27:28.623Z,0.75
2022-08-27T10:31:50.957Z,0.45
2022-08-27T10:35:58.747Z,0.40
2022-08-27T10:40:07.390Z,0.60
2022-08-27T10:44:24.139Z,0.47
2022-08-27T10:48:24.345Z,0.35
2022-08-27T10:52:39.697Z,0.30
2022-08-27T10:56:36.310Z,0.30
2022-08-27T11:00:19.957Z,0.30
2022-08-27T11:04:26.586Z,0.30
2022-08-27T11:08:21.579Z,0.30
2022-08-27T11:12:15.128Z,0.25
2022-08-27T11:15:57.554Z,0.20
2022-08-27T11:20:07.495Z,0.40
2022-08-27T11:24:08.033Z,0.30
2022-08-27T11:27:51.320Z,0.30
2022-08-27T11:32:05.330Z,0.40
2022-08-27T11:35:54.434Z,0.35
2022-08-27T11:40:25.079Z,0.30
2022-08-27T11:44:08.577Z,0.40
2022-08-27T11:48:14.750Z,0.28
2022-08-27T11:52:09.810Z,0.47
2022-08-27T11:55:53.362Z,0.50
2022-08-27T11:59:35.218Z,0.20
2022-08-27T12:03:20.213Z,0.73
2022-08-27T12:07:14.062Z,0.20
2022-08-27T12:11:12.283Z,0.30
2022-08-27T12:15:07.808Z,0.30
2022-08-27T12:19:10.948Z,0.30
2022-08-27T12:23:26.296Z,0.10
2022-08-27T12:27:14.302Z,0.15
2022-08-27T12:30:58.754Z,0.30
2022-08-27T12:34:47.628Z,0.22
2022-08-27T12:38:32.515Z,0.30
2022-08-27T12:42:15.871Z,0.20
2022-08-27T12:46:08.744Z,0.10
2022-08-27T12:49:59.930Z,0.10
2022-08-27T12:54:02.326Z,0.20
2022-08-27T12:57:53.723Z,0.15
2022-08-27T13:01:43.038Z,0.10
2022-08-27T13:05:25.205Z,0.10
2022-08-27T13:09:08.316Z,0.10
2022-08-27T13:13:01.092Z,0.10
2022-08-27T13:16:51.450Z,0.20
2022-08-27T13:20:36.262Z,0.10
2022-08-27T13:24:32.727Z,0.10
2022-08-27T13:28:15.418Z,0.20
2022-08-27T13:31:57.542Z,0.10
2022-08-27T13:35:43.045Z,0.30
2022-08-27T13:39:25.385Z,0.25
2022-08-27T13:43:11.739Z,0.20
2022-08-27T13:47:02.266Z,0.10
2022-08-27T13:50:49.778Z,0.28
2022-08-27T13:54:31.579Z,0.08
2022-08-27T13:58:15.375Z,0.20
2022-08-27T14:02:09.592Z,0.20
2022-08-27T14:05:51.724Z,0.28
2022-08-27T14:09:33.523Z,0.25
2022-08-27T14:13:22.179Z,0.40
2022-08-27T14:17:04.559Z,0.82
2022-08-27T14:20:46.793Z,0.40
2022-08-27T14:24:31.339Z,0.10
2022-08-27T14:28:13.228Z,0.30
2022-08-27T14:31:55.011Z,0.70
2022-08-27T14:35:36.871Z,0.30
2022-08-27T14:39:18.671Z,0.63
2022-08-27T14:43:03.820Z,0.68
2022-08-27T14:46:45.691Z,0.20
2022-08-27T14:50:29.426Z,0.32
2022-08-27T14:54:11.259Z,0.57
2022-08-27T14:57:53.086Z,0.40
2022-08-27T15:01:38.015Z,0.30
2022-08-27T15:05:20.250Z,0.30
2022-08-27T15:09:06.707Z,0.40
2022-08-27T15:12:48.521Z,0.55
2022-08-27T15:16:35.208Z,0.40
2022-08-27T15:20:20.435Z,0.63
2022-08-27T15:24:05.115Z,0.40
2022-08-27T15:27:46.957Z,0.32
2022-08-27T15:31:28.770Z,0.45
2022-08-27T15:35:14.027Z,0.28
2022-08-27T15:38:56.259Z,0.20
2022-08-27T15:42:38.018Z,0.40
2022-08-27T15:46:19.856Z,0.45
2022-08-27T15:50:01.770Z,0.20
2022-08-27T15:53:43.594Z,0.40
2022-08-27T15:57:25.382Z,0.20
2022-08-27T16:01:12.271Z,0.30
2022-08-27T16:04:54.273Z,0.55
2022-08-27T16:08:36.899Z,0.68
2022-08-27T16:12:27.558Z,0.57
2022-08-27T16:16:12.989Z,0.30
2022-08-27T16:19:54.838Z,0.30
2022-08-27T16:23:37.418Z,0.60
2022-08-27T16:27:19.176Z,0.85
2022-08-27T16:31:01.046Z,1.17
2022-08-27T16:34:43.023Z,0.63
2022-08-27T16:38:24.863Z,1.00
2022-08-27T16:42:08.146Z,0.40
2022-08-27T16:45:53.575Z,0.43
2022-08-27T16:49:53.934Z,0.30
2022-08-27T16:53:38.697Z,0.50
2022-08-27T16:57:20.516Z,0.73
2022-08-27T17:01:03.792Z,0.98
2022-08-27T17:04:58.398Z,0.40
2022-08-27T17:08:49.614Z,0.70
2022-08-27T17:12:31.543Z,0.70
2022-08-27T17:16:13.407Z,0.60
2022-08-27T17:19:55.207Z,0.70
2022-08-27T17:23:39.057Z,0.50
2022-08-27T17:27:20.877Z,0.88
2022-08-27T17:31:02.730Z,0.85
2022-08-27T17:34:44.758Z,1.00
2022-08-27T17:38:26.647Z,0.70
2022-08-27T17:42:09.341Z,0.73
2022-08-27T17:45:51.302Z,0.45
2022-08-27T17:49:33.367Z,0.43
2022-08-27T17:53:15.231Z,0.68
2022-08-27T17:56:57.186Z,0.50
2022-08-27T18:00:39.322Z,0.50
2022-08-27T18:04:21.118Z,0.52
2022-08-27T18:08:03.150Z,1.10
2022-08-27T18:11:45.105Z,1.85
2022-08-27T18:15:31.673Z,1.15
2022-08-27T18:19:13.539Z,0.68
2022-08-27T18:22:55.584Z,1.02
2022-08-27T18:26:37.626Z,0.60
2022-08-27T18:30:19.723Z,0.73
2022-08-27T18:34:02.285Z,1.25
2022-08-27T18:37:44.298Z,0.68
2022-08-27T18:41:26.274Z,1.10
2022-08-27T18:45:16.110Z,0.80
2022-08-27T18:48:57.953Z,0.95
2022-08-27T18:52:39.952Z,1.17
2022-08-27T18:56:21.720Z,1.00
2022-08-27T20:10:01.454Z,1.88
2022-08-27T20:13:50.845Z,3.03
2022-08-27T20:17:33.197Z,2.22
2022-08-27T20:21:15.418Z,1.83
2022-08-27T20:24:57.221Z,3.42
2022-08-27T20:28:40.224Z,1.90
2022-08-27T20:32:24.794Z,1.15
2022-08-27T20:36:09.858Z,1.90
2022-08-27T20:39:52.438Z,2.22
2022-08-27T20:43:35.594Z,1.50
2022-08-27T20:47:17.802Z,2.55
2022-08-27T20:50:59.603Z,1.58
2022-08-27T20:54:41.393Z,1.50
2022-08-27T20:58:43.118Z,1.92
2022-08-27T21:02:26.699Z,2.08
2022-08-27T21:06:08.976Z,2.50
2022-08-27T21:09:55.916Z,2.40
2022-08-27T21:13:51.161Z,2.72
2022-08-27T21:17:37.900Z,2.35
2022-08-27T21:21:19.817Z,2.45
2022-08-27T21:25:01.624Z,2.63
2022-08-27T21:28:43.575Z,2.28
2022-08-27T21:32:25.506Z,2.20
2022-08-27T21:36:11.771Z,3.30
2022-08-27T21:39:54.079Z,3.03
2022-08-27T21:43:35.890Z,2.80
2022-08-27T21:47:17.733Z,2.65
2022-08-27T21:50:59.608Z,3.08
2022-08-27T21:54:42.010Z,2.83
2022-08-27T21:58:26.597Z,3.15
2022-08-27T22:02:28.773Z,3.33
2022-08-27T22:06:13.036Z,2.60
2022-08-27T22:09:54.832Z,3.30
2022-08-27T22:13:36.617Z,2.85
2022-08-27T22:17:18.466Z,3.00
2022-08-27T22:21:00.411Z,2.30
2022-08-27T22:24:42.169Z,2.95
2022-08-27T22:28:24.055Z,2.53
2022-08-27T22:32:07.622Z,3.22
2022-08-27T22:35:49.450Z,2.88
2022-08-27T22:39:31.306Z,2.70
2022-08-27T22:43:13.123Z,2.38
2022-08-27T22:46:55.507Z,3.10
2022-08-27T22:50:37.302Z,3.13
2022-08-27T22:54:19.092Z,3.55
2022-08-27T22:58:02.117Z,3.50
2022-08-27T23:01:43.972Z,3.00
2022-08-27T23:05:26.277Z,4.85
2022-08-27T23:09:08.184Z,3.47
2022-08-27T23:12:53.513Z,2.85
2022-08-27T23:16:35.409Z,2.60
2022-08-27T23:20:17.407Z,3.17
2022-08-27T23:24:00.283Z,2.83
2022-08-27T23:27:42.157Z,2.60
2022-08-27T23:31:24.135Z,2.17
2022-08-27T23:35:06.819Z,2.95
2022-08-27T23:38:48.649Z,2.47
2022-08-27T23:42:30.422Z,2.83
2022-08-27T23:46:12.465Z,2.35
2022-08-27T23:49:54.379Z,2.40
2022-08-27T23:53:37.275Z,2.90
2022-08-27T23:57:19.092Z,2.55
